sensor_id;sensor_type;location;lat;lon;timestamp;P1;durP1;ratioP1;P2;durP2;ratioP2
51384;SDS011;37478;55.682;37.462;2022-07-29T00:02:10;5.00;;;2.28;;
51384;SDS011;37478;55.682;37.462;2022-07-29T00:04:35;5.70;;;2.60;;
51384;SDS011;37478;55.682;37.462;2022-07-29T00:07:01;7.25;;;2.67;;
51384;SDS011;37478;55.682;37.462;2022-07-29T00:09:27;7.18;;;2.60;;
51384;SDS011;37478;55.682;37.462;2022-07-29T00:11:52;4.35;;;2.25;;
51384;SDS011;37478;55.682;37.462;2022-07-29T00:14:18;6.05;;;2.85;;
51384;SDS011;37478;55.682;37.462;2022-07-29T00:16:44;8.23;;;2.85;;
51384;SDS011;37478;55.682;37.462;2022-07-29T00:19:09;3.83;;;2.45;;
51384;SDS011;37478;55.682;37.462;2022-07-29T00:21:34;4.07;;;2.33;;
51384;SDS011;37478;55.682;37.462;2022-07-29T00:23:59;7.10;;;2.50;;
51384;SDS011;37478;55.682;37.462;2022-07-29T00:26:25;5.05;;;3.33;;
51384;SDS011;37478;55.682;37.462;2022-07-29T00:28:52;4.60;;;3.08;;
51384;SDS011;37478;55.682;37.462;2022-07-29T00:31:18;4.78;;;3.15;;
51384;SDS011;37478;55.682;37.462;2022-07-29T00:33:43;4.88;;;3.00;;
51384;SDS011;37478;55.682;37.462;2022-07-29T00:36:08;2.85;;;2.25;;
51384;SDS011;37478;55.682;37.462;2022-07-29T00:38:33;3.75;;;2.70;;
51384;SDS011;37478;55.682;37.462;2022-07-29T00:40:59;7.72;;;2.53;;
51384;SDS011;37478;55.682;37.462;2022-07-29T00:43:24;4.55;;;2.42;;
51384;SDS011;37478;55.682;37.462;2022-07-29T00:45:50;6.85;;;2.45;;
51384;SDS011;37478;55.682;37.462;2022-07-29T00:48:15;2.97;;;2.50;;
51384;SDS011;37478;55.682;37.462;2022-07-29T00:50:41;4.90;;;3.03;;
51384;SDS011;37478;55.682;37.462;2022-07-29T00:53:06;5.05;;;3.17;;
51384;SDS011;37478;55.682;37.462;2022-07-29T00:55:32;6.10;;;3.83;;
51384;SDS011;37478;55.682;37.462;2022-07-29T00:57:58;5.22;;;3.45;;
51384;SDS011;37478;55.682;37.462;2022-07-29T01:00:24;5.82;;;2.70;;
51384;SDS011;37478;55.682;37.462;2022-07-29T01:02:50;6.25;;;3.90;;
51384;SDS011;37478;55.682;37.462;2022-07-29T01:05:22;6.32;;;3.28;;
51384;SDS011;37478;55.682;37.462;2022-07-29T01:07:49;8.85;;;3.90;;
51384;SDS011;37478;55.682;37.462;2022-07-29T01:10:14;4.60;;;3.10;;
51384;SDS011;37478;55.682;37.462;2022-07-29T01:12:41;6.35;;;3.90;;
51384;SDS011;37478;55.682;37.462;2022-07-29T01:15:07;9.05;;;3.58;;
51384;SDS011;37478;55.682;37.462;2022-07-29T01:17:36;5.88;;;3.10;;
51384;SDS011;37478;55.682;37.462;2022-07-29T01:30:10;4.43;;;3.25;;
51384;SDS011;37478;55.682;37.462;2022-07-29T01:32:37;3.38;;;2.30;;
51384;SDS011;37478;55.682;37.462;2022-07-29T01:37:29;5.53;;;3.00;;
51384;SDS011;37478;55.682;37.462;2022-07-29T01:39:58;7.32;;;3.13;;
51384;SDS011;37478;55.682;37.462;2022-07-29T01:42:35;5.03;;;3.03;;
51384;SDS011;37478;55.682;37.462;2022-07-29T01:47:31;6.32;;;3.03;;
51384;SDS011;37478;55.682;37.462;2022-07-29T01:49:58;6.28;;;2.90;;
51384;SDS011;37478;55.682;37.462;2022-07-29T01:52:31;4.53;;;3.70;;
51384;SDS011;37478;55.682;37.462;2022-07-29T01:54:58;5.80;;;3.35;;
51384;SDS011;37478;55.682;37.462;2022-07-29T01:57:27;7.65;;;3.08;;
51384;SDS011;37478;55.682;37.462;2022-07-29T01:59:53;7.15;;;4.60;;
51384;SDS011;37478;55.682;37.462;2022-07-29T02:02:19;4.85;;;3.13;;
51384;SDS011;37478;55.682;37.462;2022-07-29T02:04:45;4.93;;;3.40;;
51384;SDS011;37478;55.682;37.462;2022-07-29T02:07:14;8.40;;;3.95;;
51384;SDS011;37478;55.682;37.462;2022-07-29T02:09:40;6.07;;;3.80;;
51384;SDS011;37478;55.682;37.462;2022-07-29T02:12:06;5.45;;;3.40;;
51384;SDS011;37478;55.682;37.462;2022-07-29T02:14:39;6.07;;;3.38;;
51384;SDS011;37478;55.682;37.462;2022-07-29T02:17:05;28.38;;;4.80;;
51384;SDS011;37478;55.682;37.462;2022-07-29T02:19:31;7.22;;;3.63;;
51384;SDS011;37478;55.682;37.462;2022-07-29T02:21:57;7.50;;;3.38;;
51384;SDS011;37478;55.682;37.462;2022-07-29T02:24:24;5.97;;;3.40;;
51384;SDS011;37478;55.682;37.462;2022-07-29T02:26:50;5.57;;;2.78;;
51384;SDS011;37478;55.682;37.462;2022-07-29T02:29:16;4.30;;;3.30;;
51384;SDS011;37478;55.682;37.462;2022-07-29T02:31:43;3.47;;;2.97;;
51384;SDS011;37478;55.682;37.462;2022-07-29T02:34:09;5.15;;;2.90;;
51384;SDS011;37478;55.682;37.462;2022-07-29T02:36:35;7.18;;;3.28;;
51384;SDS011;37478;55.682;37.462;2022-07-29T02:39:02;5.55;;;3.10;;
51384;SDS011;37478;55.682;37.462;2022-07-29T02:43:54;6.50;;;3.00;;
51384;SDS011;37478;55.682;37.462;2022-07-29T02:46:21;5.55;;;3.08;;
51384;SDS011;37478;55.682;37.462;2022-07-29T02:49:09;4.05;;;3.25;;
51384;SDS011;37478;55.682;37.462;2022-07-29T02:52:08;7.22;;;3.45;;
51384;SDS011;37478;55.682;37.462;2022-07-29T02:54:29;14.80;;;3.72;;
51384;SDS011;37478;55.682;37.462;2022-07-29T02:56:56;8.05;;;3.20;;
51384;SDS011;37478;55.682;37.462;2022-07-29T02:59:24;4.30;;;3.03;;
51384;SDS011;37478;55.682;37.462;2022-07-29T03:01:52;5.18;;;3.30;;
51384;SDS011;37478;55.682;37.462;2022-07-29T03:04:17;4.55;;;2.88;;
51384;SDS011;37478;55.682;37.462;2022-07-29T03:06:44;5.75;;;3.58;;
51384;SDS011;37478;55.682;37.462;2022-07-29T03:09:10;6.95;;;3.25;;
51384;SDS011;37478;55.682;37.462;2022-07-29T03:11:35;4.53;;;3.13;;
51384;SDS011;37478;55.682;37.462;2022-07-29T03:14:01;5.65;;;3.42;;
51384;SDS011;37478;55.682;37.462;2022-07-29T03:16:27;7.25;;;3.45;;
51384;SDS011;37478;55.682;37.462;2022-07-29T03:18:53;8.48;;;5.57;;
51384;SDS011;37478;55.682;37.462;2022-07-29T03:21:19;8.82;;;5.47;;
51384;SDS011;37478;55.682;37.462;2022-07-29T03:23:44;10.98;;;4.30;;
51384;SDS011;37478;55.682;37.462;2022-07-29T03:26:10;11.68;;;4.90;;
51384;SDS011;37478;55.682;37.462;2022-07-29T03:28:35;9.82;;;4.32;;
51384;SDS011;37478;55.682;37.462;2022-07-29T03:31:01;6.57;;;3.30;;
51384;SDS011;37478;55.682;37.462;2022-07-29T03:33:26;7.65;;;3.55;;
51384;SDS011;37478;55.682;37.462;2022-07-29T03:35:53;6.90;;;3.72;;
51384;SDS011;37478;55.682;37.462;2022-07-29T03:38:19;7.63;;;2.65;;
51384;SDS011;37478;55.682;37.462;2022-07-29T03:40:55;4.45;;;2.63;;
51384;SDS011;37478;55.682;37.462;2022-07-29T03:43:21;6.28;;;2.55;;
51384;SDS011;37478;55.682;37.462;2022-07-29T03:45:49;7.05;;;3.00;;
51384;SDS011;37478;55.682;37.462;2022-07-29T03:48:17;4.32;;;2.67;;
51384;SDS011;37478;55.682;37.462;2022-07-29T03:50:44;4.75;;;2.65;;
51384;SDS011;37478;55.682;37.462;2022-07-29T03:53:10;5.90;;;2.70;;
51384;SDS011;37478;55.682;37.462;2022-07-29T03:55:36;7.90;;;2.80;;
51384;SDS011;37478;55.682;37.462;2022-07-29T03:58:02;5.93;;;2.70;;
51384;SDS011;37478;55.682;37.462;2022-07-29T04:00:28;4.40;;;2.83;;
51384;SDS011;37478;55.682;37.462;2022-07-29T04:02:53;4.13;;;2.20;;
51384;SDS011;37478;55.682;37.462;2022-07-29T04:05:19;4.35;;;2.65;;
51384;SDS011;37478;55.682;37.462;2022-07-29T04:07:44;3.13;;;2.28;;
51384;SDS011;37478;55.682;37.462;2022-07-29T04:10:10;4.07;;;2.97;;
51384;SDS011;37478;55.682;37.462;2022-07-29T04:12:35;5.97;;;3.10;;
51384;SDS011;37478;55.682;37.462;2022-07-29T04:15:01;5.05;;;3.15;;
51384;SDS011;37478;55.682;37.462;2022-07-29T04:17:27;5.88;;;4.00;;
51384;SDS011;37478;55.682;37.462;2022-07-29T04:19:52;4.68;;;3.33;;
51384;SDS011;37478;55.682;37.462;2022-07-29T04:22:17;5.35;;;2.90;;
51384;SDS011;37478;55.682;37.462;2022-07-29T04:24:43;5.47;;;3.28;;
51384;SDS011;37478;55.682;37.462;2022-07-29T04:27:08;3.83;;;2.63;;
51384;SDS011;37478;55.682;37.462;2022-07-29T04:29:33;3.85;;;2.85;;
51384;SDS011;37478;55.682;37.462;2022-07-29T04:31:59;6.63;;;2.42;;
51384;SDS011;37478;55.682;37.462;2022-07-29T04:34:24;5.32;;;2.60;;
51384;SDS011;37478;55.682;37.462;2022-07-29T04:36:49;8.68;;;2.90;;
51384;SDS011;37478;55.682;37.462;2022-07-29T04:39:15;7.65;;;2.92;;
51384;SDS011;37478;55.682;37.462;2022-07-29T04:41:40;5.93;;;2.67;;
51384;SDS011;37478;55.682;37.462;2022-07-29T04:44:05;5.53;;;2.45;;
51384;SDS011;37478;55.682;37.462;2022-07-29T04:46:31;4.82;;;2.42;;
51384;SDS011;37478;55.682;37.462;2022-07-29T04:48:56;4.95;;;2.30;;
51384;SDS011;37478;55.682;37.462;2022-07-29T04:51:22;4.90;;;2.33;;
51384;SDS011;37478;55.682;37.462;2022-07-29T04:53:47;6.63;;;2.40;;
51384;SDS011;37478;55.682;37.462;2022-07-29T04:56:12;3.35;;;2.17;;
51384;SDS011;37478;55.682;37.462;2022-07-29T04:58:38;2.35;;;2.15;;
51384;SDS011;37478;55.682;37.462;2022-07-29T05:01:03;5.18;;;2.47;;
51384;SDS011;37478;55.682;37.462;2022-07-29T05:03:28;3.10;;;2.30;;
51384;SDS011;37478;55.682;37.462;2022-07-29T05:05:54;4.22;;;2.05;;
51384;SDS011;37478;55.682;37.462;2022-07-29T05:08:19;3.33;;;2.20;;
51384;SDS011;37478;55.682;37.462;2022-07-29T05:10:44;5.65;;;2.80;;
51384;SDS011;37478;55.682;37.462;2022-07-29T05:13:10;4.50;;;2.22;;
51384;SDS011;37478;55.682;37.462;2022-07-29T05:15:35;2.30;;;1.63;;
51384;SDS011;37478;55.682;37.462;2022-07-29T05:18:01;3.72;;;2.22;;
51384;SDS011;37478;55.682;37.462;2022-07-29T05:20:26;6.03;;;1.95;;
51384;SDS011;37478;55.682;37.462;2022-07-29T05:22:56;4.55;;;1.90;;
51384;SDS011;37478;55.682;37.462;2022-07-29T05:25:22;3.80;;;2.13;;
51384;SDS011;37478;55.682;37.462;2022-07-29T05:27:47;2.75;;;1.80;;
51384;SDS011;37478;55.682;37.462;2022-07-29T05:30:13;5.43;;;2.45;;
51384;SDS011;37478;55.682;37.462;2022-07-29T05:32:38;2.67;;;2.25;;
51384;SDS011;37478;55.682;37.462;2022-07-29T05:35:04;3.90;;;2.42;;
51384;SDS011;37478;55.682;37.462;2022-07-29T05:37:29;3.67;;;2.30;;
51384;SDS011;37478;55.682;37.462;2022-07-29T05:39:55;6.10;;;2.38;;
51384;SDS011;37478;55.682;37.462;2022-07-29T05:42:21;3.63;;;2.03;;
51384;SDS011;37478;55.682;37.462;2022-07-29T05:44:46;3.95;;;2.28;;
51384;SDS011;37478;55.682;37.462;2022-07-29T05:47:12;4.97;;;2.05;;
51384;SDS011;37478;55.682;37.462;2022-07-29T05:49:38;2.28;;;2.00;;
51384;SDS011;37478;55.682;37.462;2022-07-29T05:52:03;3.83;;;2.25;;
51384;SDS011;37478;55.682;37.462;2022-07-29T05:54:29;2.75;;;2.22;;
51384;SDS011;37478;55.682;37.462;2022-07-29T05:56:54;3.17;;;1.95;;
51384;SDS011;37478;55.682;37.462;2022-07-29T05:59:19;3.15;;;2.33;;
51384;SDS011;37478;55.682;37.462;2022-07-29T06:01:45;4.75;;;2.22;;
51384;SDS011;37478;55.682;37.462;2022-07-29T06:04:10;5.00;;;2.40;;
51384;SDS011;37478;55.682;37.462;2022-07-29T06:06:35;4.65;;;2.00;;
51384;SDS011;37478;55.682;37.462;2022-07-29T06:09:01;2.63;;;2.10;;
51384;SDS011;37478;55.682;37.462;2022-07-29T06:11:27;8.40;;;2.35;;
51384;SDS011;37478;55.682;37.462;2022-07-29T06:13:52;6.40;;;2.92;;
51384;SDS011;37478;55.682;37.462;2022-07-29T06:16:18;3.25;;;2.22;;
51384;SDS011;37478;55.682;37.462;2022-07-29T06:18:43;3.63;;;2.22;;
51384;SDS011;37478;55.682;37.462;2022-07-29T06:21:09;7.43;;;3.45;;
51384;SDS011;37478;55.682;37.462;2022-07-29T06:23:35;5.47;;;2.20;;
51384;SDS011;37478;55.682;37.462;2022-07-29T06:26:01;3.80;;;2.22;;
51384;SDS011;37478;55.682;37.462;2022-07-29T06:28:26;4.65;;;2.28;;
51384;SDS011;37478;55.682;37.462;2022-07-29T06:30:52;4.82;;;1.83;;
51384;SDS011;37478;55.682;37.462;2022-07-29T06:33:17;9.25;;;3.00;;
51384;SDS011;37478;55.682;37.462;2022-07-29T06:35:43;2.80;;;1.98;;
51384;SDS011;37478;55.682;37.462;2022-07-29T06:38:09;4.60;;;1.98;;
51384;SDS011;37478;55.682;37.462;2022-07-29T06:40:36;3.58;;;2.00;;
51384;SDS011;37478;55.682;37.462;2022-07-29T06:43:20;2.10;;;1.80;;
51384;SDS011;37478;55.682;37.462;2022-07-29T06:45:45;2.67;;;1.73;;
51384;SDS011;37478;55.682;37.462;2022-07-29T06:48:11;4.57;;;2.05;;
51384;SDS011;37478;55.682;37.462;2022-07-29T06:50:36;8.00;;;2.10;;
51384;SDS011;37478;55.682;37.462;2022-07-29T06:53:02;3.03;;;1.85;;
51384;SDS011;37478;55.682;37.462;2022-07-29T06:55:27;2.45;;;1.80;;
51384;SDS011;37478;55.682;37.462;2022-07-29T06:57:52;4.93;;;2.00;;
51384;SDS011;37478;55.682;37.462;2022-07-29T07:00:18;4.70;;;2.00;;
51384;SDS011;37478;55.682;37.462;2022-07-29T07:02:43;4.18;;;1.80;;
51384;SDS011;37478;55.682;37.462;2022-07-29T07:05:09;4.80;;;2.30;;
51384;SDS011;37478;55.682;37.462;2022-07-29T07:07:34;3.55;;;2.25;;
51384;SDS011;37478;55.682;37.462;2022-07-29T07:09:59;2.58;;;1.70;;
51384;SDS011;37478;55.682;37.462;2022-07-29T07:12:25;5.72;;;2.15;;
51384;SDS011;37478;55.682;37.462;2022-07-29T07:14:50;4.88;;;1.98;;
51384;SDS011;37478;55.682;37.462;2022-07-29T07:17:15;2.08;;;1.55;;
51384;SDS011;37478;55.682;37.462;2022-07-29T07:19:40;2.47;;;2.10;;
51384;SDS011;37478;55.682;37.462;2022-07-29T07:22:06;3.13;;;1.58;;
51384;SDS011;37478;55.682;37.462;2022-07-29T07:24:31;3.50;;;1.88;;
51384;SDS011;37478;55.682;37.462;2022-07-29T07:26:56;4.90;;;1.40;;
51384;SDS011;37478;55.682;37.462;2022-07-29T07:29:22;7.10;;;2.03;;
51384;SDS011;37478;55.682;37.462;2022-07-29T07:31:47;6.30;;;1.83;;
51384;SDS011;37478;55.682;37.462;2022-07-29T07:34:13;4.22;;;1.40;;
51384;SDS011;37478;55.682;37.462;2022-07-29T07:36:38;3.90;;;2.08;;
51384;SDS011;37478;55.682;37.462;2022-07-29T07:39:03;5.03;;;1.65;;
51384;SDS011;37478;55.682;37.462;2022-07-29T07:41:30;3.38;;;1.77;;
51384;SDS011;37478;55.682;37.462;2022-07-29T07:43:55;3.28;;;2.53;;
51384;SDS011;37478;55.682;37.462;2022-07-29T07:46:21;4.35;;;1.80;;
51384;SDS011;37478;55.682;37.462;2022-07-29T07:48:46;1.50;;;1.40;;
51384;SDS011;37478;55.682;37.462;2022-07-29T07:51:11;7.68;;;1.85;;
51384;SDS011;37478;55.682;37.462;2022-07-29T07:53:36;2.85;;;1.50;;
51384;SDS011;37478;55.682;37.462;2022-07-29T07:56:02;9.80;;;2.20;;
51384;SDS011;37478;55.682;37.462;2022-07-29T07:58:29;6.03;;;1.83;;
51384;SDS011;37478;55.682;37.462;2022-07-29T08:00:54;2.78;;;1.60;;
51384;SDS011;37478;55.682;37.462;2022-07-29T08:03:19;2.75;;;1.55;;
51384;SDS011;37478;55.682;37.462;2022-07-29T08:05:45;6.55;;;2.00;;
51384;SDS011;37478;55.682;37.462;2022-07-29T08:08:11;2.03;;;1.70;;
51384;SDS011;37478;55.682;37.462;2022-07-29T08:10:36;3.97;;;1.65;;
51384;SDS011;37478;55.682;37.462;2022-07-29T08:13:17;4.60;;;1.35;;
51384;SDS011;37478;55.682;37.462;2022-07-29T08:15:42;2.05;;;1.20;;
51384;SDS011;37478;55.682;37.462;2022-07-29T08:18:09;4.65;;;2.00;;
51384;SDS011;37478;55.682;37.462;2022-07-29T08:20:35;2.83;;;1.30;;
51384;SDS011;37478;55.682;37.462;2022-07-29T08:23:02;3.15;;;1.80;;
51384;SDS011;37478;55.682;37.462;2022-07-29T08:25:27;3.22;;;1.38;;
51384;SDS011;37478;55.682;37.462;2022-07-29T08:27:53;2.92;;;1.77;;
51384;SDS011;37478;55.682;37.462;2022-07-29T08:30:18;3.40;;;1.40;;
51384;SDS011;37478;55.682;37.462;2022-07-29T08:32:43;3.00;;;1.33;;
51384;SDS011;37478;55.682;37.462;2022-07-29T08:35:09;2.28;;;1.25;;
51384;SDS011;37478;55.682;37.462;2022-07-29T08:37:34;1.90;;;1.42;;
51384;SDS011;37478;55.682;37.462;2022-07-29T08:39:59;2.22;;;1.50;;
51384;SDS011;37478;55.682;37.462;2022-07-29T08:42:25;2.28;;;1.35;;
51384;SDS011;37478;55.682;37.462;2022-07-29T08:44:50;1.85;;;1.33;;
51384;SDS011;37478;55.682;37.462;2022-07-29T08:47:16;2.67;;;1.42;;
51384;SDS011;37478;55.682;37.462;2022-07-29T08:49:41;1.60;;;1.50;;
51384;SDS011;37478;55.682;37.462;2022-07-29T08:52:07;3.53;;;1.63;;
51384;SDS011;37478;55.682;37.462;2022-07-29T08:54:35;3.13;;;1.60;;
51384;SDS011;37478;55.682;37.462;2022-07-29T08:57:00;6.57;;;2.47;;
51384;SDS011;37478;55.682;37.462;2022-07-29T08:59:26;4.70;;;1.88;;
51384;SDS011;37478;55.682;37.462;2022-07-29T09:01:53;4.43;;;2.42;;
51384;SDS011;37478;55.682;37.462;2022-07-29T09:04:19;3.17;;;1.60;;
51384;SDS011;37478;55.682;37.462;2022-07-29T09:06:47;2.17;;;1.50;;
51384;SDS011;37478;55.682;37.462;2022-07-29T09:09:13;2.97;;;1.60;;
51384;SDS011;37478;55.682;37.462;2022-07-29T09:11:39;3.08;;;1.83;;
51384;SDS011;37478;55.682;37.462;2022-07-29T09:14:04;4.13;;;1.88;;
51384;SDS011;37478;55.682;37.462;2022-07-29T09:19:29;2.50;;;1.45;;
51384;SDS011;37478;55.682;37.462;2022-07-29T09:21:55;4.10;;;1.52;;
51384;SDS011;37478;55.682;37.462;2022-07-29T09:24:36;1.92;;;1.20;;
51384;SDS011;37478;55.682;37.462;2022-07-29T09:29:37;2.60;;;1.30;;
51384;SDS011;37478;55.682;37.462;2022-07-29T09:32:05;5.30;;;2.83;;
51384;SDS011;37478;55.682;37.462;2022-07-29T09:34:31;3.05;;;1.20;;
51384;SDS011;37478;55.682;37.462;2022-07-29T09:36:56;2.53;;;1.35;;
51384;SDS011;37478;55.682;37.462;2022-07-29T09:39:29;3.05;;;1.35;;
51384;SDS011;37478;55.682;37.462;2022-07-29T09:41:55;1.58;;;1.40;;
51384;SDS011;37478;55.682;37.462;2022-07-29T09:44:21;2.65;;;1.30;;
51384;SDS011;37478;55.682;37.462;2022-07-29T09:47:02;1.73;;;1.15;;
51384;SDS011;37478;55.682;37.462;2022-07-29T09:49:34;1.77;;;1.63;;
51384;SDS011;37478;55.682;37.462;2022-07-29T09:52:09;2.80;;;1.80;;
51384;SDS011;37478;55.682;37.462;2022-07-29T09:54:36;2.38;;;1.30;;
51384;SDS011;37478;55.682;37.462;2022-07-29T09:57:05;4.90;;;1.30;;
51384;SDS011;37478;55.682;37.462;2022-07-29T09:59:31;1.40;;;1.30;;
51384;SDS011;37478;55.682;37.462;2022-07-29T10:01:57;2.30;;;1.08;;
51384;SDS011;37478;55.682;37.462;2022-07-29T10:04:22;1.40;;;1.10;;
51384;SDS011;37478;55.682;37.462;2022-07-29T10:09:22;1.33;;;1.17;;
51384;SDS011;37478;55.682;37.462;2022-07-29T10:12:02;1.92;;;1.52;;
51384;SDS011;37478;55.682;37.462;2022-07-29T10:14:27;2.80;;;1.10;;
51384;SDS011;37478;55.682;37.462;2022-07-29T10:16:53;2.20;;;1.45;;
51384;SDS011;37478;55.682;37.462;2022-07-29T10:19:18;3.30;;;1.23;;
51384;SDS011;37478;55.682;37.462;2022-07-29T10:21:44;2.58;;;1.25;;
51384;SDS011;37478;55.682;37.462;2022-07-29T10:24:09;2.58;;;1.23;;
51384;SDS011;37478;55.682;37.462;2022-07-29T10:26:35;1.73;;;1.33;;
51384;SDS011;37478;55.682;37.462;2022-07-29T10:29:02;1.17;;;1.08;;
51384;SDS011;37478;55.682;37.462;2022-07-29T10:31:35;3.72;;;1.33;;
51384;SDS011;37478;55.682;37.462;2022-07-29T10:34:11;1.50;;;1.40;;
51384;SDS011;37478;55.682;37.462;2022-07-29T10:39:15;2.97;;;1.30;;
51384;SDS011;37478;55.682;37.462;2022-07-29T10:44:21;1.92;;;1.20;;
51384;SDS011;37478;55.682;37.462;2022-07-29T10:46:47;0.90;;;0.90;;
51384;SDS011;37478;55.682;37.462;2022-07-29T10:54:15;3.58;;;1.58;;
51384;SDS011;37478;55.682;37.462;2022-07-29T10:56:40;3.50;;;1.50;;
51384;SDS011;37478;55.682;37.462;2022-07-29T11:01:50;1.13;;;1.00;;
51384;SDS011;37478;55.682;37.462;2022-07-29T11:04:16;3.13;;;1.40;;
51384;SDS011;37478;55.682;37.462;2022-07-29T11:09:29;1.20;;;1.10;;
51384;SDS011;37478;55.682;37.462;2022-07-29T11:11:56;1.27;;;1.17;;
51384;SDS011;37478;55.682;37.462;2022-07-29T11:17:05;5.10;;;2.05;;
51384;SDS011;37478;55.682;37.462;2022-07-29T11:19:32;0.90;;;0.90;;
51384;SDS011;37478;55.682;37.462;2022-07-29T11:21:57;3.80;;;1.75;;
51384;SDS011;37478;55.682;37.462;2022-07-29T11:24:24;8.15;;;2.05;;
51384;SDS011;37478;55.682;37.462;2022-07-29T11:29:40;1.67;;;1.30;;
51384;SDS011;37478;55.682;37.462;2022-07-29T11:32:10;1.02;;;1.00;;
51384;SDS011;37478;55.682;37.462;2022-07-29T11:34:35;1.13;;;0.77;;
51384;SDS011;37478;55.682;37.462;2022-07-29T11:47:23;3.45;;;1.42;;
51384;SDS011;37478;55.682;37.462;2022-07-29T11:49:50;3.00;;;1.40;;
51384;SDS011;37478;55.682;37.462;2022-07-29T11:52:16;3.33;;;1.67;;
51384;SDS011;37478;55.682;37.462;2022-07-29T11:54:42;3.35;;;1.42;;
51384;SDS011;37478;55.682;37.462;2022-07-29T11:57:08;5.35;;;1.80;;
51384;SDS011;37478;55.682;37.462;2022-07-29T11:59:40;1.33;;;1.23;;
51384;SDS011;37478;55.682;37.462;2022-07-29T12:02:06;2.28;;;1.48;;
51384;SDS011;37478;55.682;37.462;2022-07-29T12:04:33;4.03;;;1.58;;
51384;SDS011;37478;55.682;37.462;2022-07-29T12:06:58;1.92;;;1.20;;
51384;SDS011;37478;55.682;37.462;2022-07-29T12:09:24;5.93;;;1.52;;
51384;SDS011;37478;55.682;37.462;2022-07-29T12:11:49;2.30;;;1.00;;
51384;SDS011;37478;55.682;37.462;2022-07-29T12:14:24;3.08;;;1.80;;
51384;SDS011;37478;55.682;37.462;2022-07-29T12:16:50;3.65;;;1.70;;
51384;SDS011;37478;55.682;37.462;2022-07-29T12:19:15;1.70;;;1.27;;
51384;SDS011;37478;55.682;37.462;2022-07-29T12:21:44;2.17;;;1.63;;
51384;SDS011;37478;55.682;37.462;2022-07-29T12:24:09;2.53;;;1.90;;
51384;SDS011;37478;55.682;37.462;2022-07-29T12:26:35;3.00;;;1.45;;
51384;SDS011;37478;55.682;37.462;2022-07-29T12:29:00;4.32;;;1.67;;
51384;SDS011;37478;55.682;37.462;2022-07-29T12:31:26;1.73;;;1.30;;
51384;SDS011;37478;55.682;37.462;2022-07-29T12:33:52;3.53;;;1.60;;
51384;SDS011;37478;55.682;37.462;2022-07-29T12:36:18;8.88;;;3.67;;
51384;SDS011;37478;55.682;37.462;2022-07-29T12:38:44;1.08;;;1.00;;
51384;SDS011;37478;55.682;37.462;2022-07-29T12:41:09;3.45;;;1.20;;
51384;SDS011;37478;55.682;37.462;2022-07-29T12:43:35;2.42;;;1.05;;
51384;SDS011;37478;55.682;37.462;2022-07-29T12:46:11;5.00;;;1.30;;
51384;SDS011;37478;55.682;37.462;2022-07-29T12:48:37;6.75;;;2.00;;
51384;SDS011;37478;55.682;37.462;2022-07-29T12:51:03;1.30;;;1.10;;
51384;SDS011;37478;55.682;37.462;2022-07-29T12:53:29;2.88;;;1.30;;
51384;SDS011;37478;55.682;37.462;2022-07-29T12:55:54;2.92;;;1.42;;
51384;SDS011;37478;55.682;37.462;2022-07-29T13:01:02;2.83;;;1.50;;
51384;SDS011;37478;55.682;37.462;2022-07-29T13:03:28;2.47;;;1.65;;
51384;SDS011;37478;55.682;37.462;2022-07-29T13:05:54;1.67;;;1.50;;
51384;SDS011;37478;55.682;37.462;2022-07-29T13:08:19;5.32;;;2.60;;
51384;SDS011;37478;55.682;37.462;2022-07-29T13:10:45;3.17;;;1.50;;
51384;SDS011;37478;55.682;37.462;2022-07-29T13:13:11;4.95;;;2.15;;
51384;SDS011;37478;55.682;37.462;2022-07-29T13:15:37;2.05;;;1.30;;
51384;SDS011;37478;55.682;37.462;2022-07-29T13:18:03;3.97;;;1.75;;
51384;SDS011;37478;55.682;37.462;2022-07-29T13:20:29;1.98;;;1.33;;
51384;SDS011;37478;55.682;37.462;2022-07-29T13:22:56;3.97;;;1.27;;
51384;SDS011;37478;55.682;37.462;2022-07-29T13:25:31;3.78;;;1.60;;
51384;SDS011;37478;55.682;37.462;2022-07-29T13:27:57;3.38;;;1.80;;
51384;SDS011;37478;55.682;37.462;2022-07-29T13:30:23;4.97;;;1.48;;
51384;SDS011;37478;55.682;37.462;2022-07-29T13:32:48;3.42;;;1.63;;
51384;SDS011;37478;55.682;37.462;2022-07-29T13:35:14;1.80;;;1.08;;
51384;SDS011;37478;55.682;37.462;2022-07-29T13:37:39;1.70;;;1.30;;
51384;SDS011;37478;55.682;37.462;2022-07-29T13:40:08;1.83;;;1.25;;
51384;SDS011;37478;55.682;37.462;2022-07-29T13:42:34;1.02;;;0.93;;
51384;SDS011;37478;55.682;37.462;2022-07-29T13:44:59;2.75;;;1.30;;
51384;SDS011;37478;55.682;37.462;2022-07-29T13:47:25;4.00;;;1.65;;
51384;SDS011;37478;55.682;37.462;2022-07-29T13:49:50;3.05;;;1.40;;
51384;SDS011;37478;55.682;37.462;2022-07-29T13:52:16;2.10;;;1.30;;
51384;SDS011;37478;55.682;37.462;2022-07-29T13:54:41;4.65;;;2.40;;
51384;SDS011;37478;55.682;37.462;2022-07-29T13:57:07;3.15;;;1.48;;
51384;SDS011;37478;55.682;37.462;2022-07-29T13:59:33;1.52;;;1.23;;
51384;SDS011;37478;55.682;37.462;2022-07-29T14:01:58;3.28;;;1.23;;
51384;SDS011;37478;55.682;37.462;2022-07-29T14:04:23;1.98;;;1.30;;
51384;SDS011;37478;55.682;37.462;2022-07-29T14:06:49;1.70;;;1.15;;
51384;SDS011;37478;55.682;37.462;2022-07-29T14:09:14;2.13;;;1.23;;
51384;SDS011;37478;55.682;37.462;2022-07-29T14:11:40;2.50;;;1.60;;
51384;SDS011;37478;55.682;37.462;2022-07-29T14:14:05;3.78;;;2.00;;
51384;SDS011;37478;55.682;37.462;2022-07-29T14:16:31;2.53;;;1.50;;
51384;SDS011;37478;55.682;37.462;2022-07-29T14:18:56;3.78;;;1.95;;
51384;SDS011;37478;55.682;37.462;2022-07-29T14:21:21;5.30;;;1.50;;
51384;SDS011;37478;55.682;37.462;2022-07-29T14:23:47;1.40;;;1.15;;
51384;SDS011;37478;55.682;37.462;2022-07-29T14:26:12;2.45;;;1.60;;
51384;SDS011;37478;55.682;37.462;2022-07-29T14:28:38;1.50;;;1.25;;
51384;SDS011;37478;55.682;37.462;2022-07-29T14:31:03;3.85;;;1.73;;
51384;SDS011;37478;55.682;37.462;2022-07-29T14:33:28;1.95;;;1.35;;
51384;SDS011;37478;55.682;37.462;2022-07-29T14:35:53;4.85;;;1.45;;
51384;SDS011;37478;55.682;37.462;2022-07-29T14:38:19;4.15;;;1.65;;
51384;SDS011;37478;55.682;37.462;2022-07-29T14:40:44;2.80;;;1.40;;
51384;SDS011;37478;55.682;37.462;2022-07-29T14:43:11;1.05;;;0.95;;
51384;SDS011;37478;55.682;37.462;2022-07-29T14:45:36;2.30;;;1.48;;
51384;SDS011;37478;55.682;37.462;2022-07-29T14:48:02;1.67;;;1.45;;
51384;SDS011;37478;55.682;37.462;2022-07-29T14:50:27;6.72;;;1.65;;
51384;SDS011;37478;55.682;37.462;2022-07-29T14:52:52;2.08;;;1.77;;
51384;SDS011;37478;55.682;37.462;2022-07-29T14:55:18;3.78;;;1.58;;
51384;SDS011;37478;55.682;37.462;2022-07-29T14:57:43;4.60;;;1.50;;
51384;SDS011;37478;55.682;37.462;2022-07-29T15:00:09;6.00;;;1.98;;
51384;SDS011;37478;55.682;37.462;2022-07-29T15:02:35;4.75;;;1.35;;
51384;SDS011;37478;55.682;37.462;2022-07-29T15:05:00;1.30;;;1.20;;
51384;SDS011;37478;55.682;37.462;2022-07-29T15:07:25;3.17;;;1.45;;
51384;SDS011;37478;55.682;37.462;2022-07-29T15:09:51;3.08;;;1.60;;
51384;SDS011;37478;55.682;37.462;2022-07-29T15:12:16;3.03;;;1.10;;
51384;SDS011;37478;55.682;37.462;2022-07-29T15:14:42;2.42;;;1.60;;
51384;SDS011;37478;55.682;37.462;2022-07-29T15:17:07;6.32;;;1.70;;
51384;SDS011;37478;55.682;37.462;2022-07-29T15:19:32;1.65;;;1.40;;
51384;SDS011;37478;55.682;37.462;2022-07-29T15:21:58;7.25;;;2.03;;
51384;SDS011;37478;55.682;37.462;2022-07-29T15:24:23;2.83;;;1.50;;
51384;SDS011;37478;55.682;37.462;2022-07-29T15:26:48;2.33;;;1.48;;
51384;SDS011;37478;55.682;37.462;2022-07-29T15:29:14;2.28;;;1.65;;